x

Canaveral 20 Nm East Of Cape Canaveral, Fl (41009) Wave Buoy

2:50pm - Thu 28th Jul 2016 All times are EDT. -4 hours from GMT.

  • Sig Wave height 1.3ft
  • Swell Direction
  • Peak Period 8s
  • Average Period 6s
  • Wind
    9mph
  • Sea Temp 85°f
  • Air Temp 84°f
  • Sea Pressure 1017.7mb
  • Canaveral 20 Nm East Of Cape Canaveral, Fl
  • Canaveral 20 Nm East Of Cape Canaveral, Fl

More Historic Weather Station data

Upgrade to MSW Pro to gain access to the past 30 days of data for over 8000 Wavebouys and Weather Stations around the globe.

Join Pro

Comparision Forecast

View Surf forecast
   
Thu 07/28 2:50pm 1.3ft 8s 6s 9
mph
1017.7mb 85f 84f
2:20pm  -   -   -  9
mph
1018.1mb 85f 84f
1:50pm 1.3ft 8s 5s 7 9 mph 1018.3mb 85f 84f
1:20pm  -   -   -  7 9 mph 1018.7mb 85f 83f
12:50pm 1.3ft 8s 5s 7 9 mph 1018.9mb 85f 83f
12:20pm  -   -   -  7 9 mph 1019mb 84f 83f
11:50am 1.3ft 8s 5s 7 9 mph 1019.1mb 84f 83f
10:50am 1.3ft 7s 5s 9
mph
1019.2mb 83f 83f
10:20am  -   -   -  7 9 mph 1019.2mb 83f 83f
9:50am 1.3ft 7s 5s 7 9 mph 1019.1mb 83f 83f
9:20am  -   -   -  4 7 mph 1019mb 83f 82f
8:50am 1.3ft 8s 5s 7 9 mph 1019mb 83f 83f
8:20am  -   -   -  7 9 mph 1018.8mb 83f 83f
7:50am 1.3ft 8s 5s 9
mph
1018.6mb 83f 83f
7:20am  -   -   -  7
mph
1018.5mb 83f 83f
6:50am 1.6ft 8s 5s 4 7 mph 1018.4mb 83f 83f
6:20am  -   -   -  4 7 mph 1018.3mb 83f 83f
5:50am 1.6ft 8s 4s 7
mph
1018mb 83f 83f
5:20am  -   -   -  9
mph
1017.8mb 83f 83f
4:50am 1.6ft 8s 4s 9 11 mph 1017.6mb 83f 83f
4:20am  -   -   -  9 11 mph 1017.6mb 83f 83f
3:50am 1.6ft 8s 4s 9 11 mph 1017.6mb 83f 83f
3:20am  -   -   -  9 11 mph 1017.8mb 83f 83f
2:50am 1.6ft 8s 4s 9 11 mph 1017.6mb 83f 83f
2:20am  -   -   -  11
mph
1017.9mb 83f 83f
1:50am 1.3ft 8s 4s 9 11 mph 1018.2mb 83f 83f
1:20am  -   -   -  9 11 mph 1018.4mb 83f 83f
12:50am 1.6ft 8s 4s 9 11 mph 1018.3mb 83f 83f
12:20am  -   -   -  9
mph
1018.5mb 83f 83f
Wed 07/27 11:50pm 1.6ft 8s 4s 9 11 mph 1018.6mb 83f 84f
11:20pm  -   -   -  11 13 mph 1018.5mb 83f 84f
10:50pm 1.6ft 7s 4s 11 13 mph 1018.6mb 83f 84f
10:20pm  -   -   -  13 16 mph 1018.1mb 83f 84f
9:50pm 1.6ft 8s 4s 13 16 mph 1018mb 84f 84f
9:20pm  -   -   -  13 16 mph 1017.8mb 84f 84f
8:50pm 1.6ft 8s 5s 13 16 mph 1017.4mb 84f 84f
8:20pm  -   -   -  13 16 mph 1017.6mb 85f 85f
7:50pm 1.6ft 7s 5s 13 16 mph 1017.6mb 85f 85f
7:20pm  -   -   -  13
mph
1017.7mb 85f 85f
6:50pm 1.3ft 8s 5s 11 13 mph 1017.5mb 85f 85f
6:20pm  -   -   -  11 13 mph 1017.4mb 86f 85f
5:50pm 1.3ft 8s 6s 9 11 mph 1017.6mb 86f 85f
5:20pm  -   -   -  9 11 mph 1017.7mb 87f 85f
4:50pm 1.3ft 8s 6s 9
mph
1017.9mb 87f 85f
4:20pm  -   -   -  9
mph
1018mb 87f 85f
3:50pm 1.3ft 8s 6s 7 9 mph 1018.3mb 88f 85f
3:20pm  -   -   -  7 9 mph 1018.6mb 88f 84f
2:50pm 1.3ft 7s 6s 7 9 mph 1018.8mb 88f 84f
2:20pm  -   -   -  7 9 mph 1018.9mb 88f 84f
1:50pm 1.3ft 8s 6s 7
mph
1019.3mb 87f 84f
1:20pm  -   -   -  4
mph
1019.7mb 87f 84f
12:50pm 1.3ft 8s 5s 2 4 mph 1020mb 86f 83f
12:20pm  -   -   -  4
mph
1020.1mb 86f 83f
11:50am 1.3ft 8s 5s 4 7 mph 1020.1mb 85f 83f
11:20am  -   -   -  4 7 mph 1020.1mb 85f 83f
10:50am 1.3ft 8s 5s 2 4 mph 1020mb 84f 83f
10:20am  -   -   -  4 7 mph 1019.9mb 84f 83f
9:50am 1.3ft 7s 5s 4
mph
1020.1mb 84f 83f
9:20am  -   -   -  4
mph
1020.1mb 84f 83f
8:50am 1.3ft 8s 5s 4 7 mph 1019.9mb 83f 83f
8:20am  -   -   -  4
mph
1019.6mb 83f 82f
7:50am 1.3ft 8s 4s 7 9 mph 1019.2mb 83f 83f
7:20am  -   -   -  7
mph
1019mb 83f 83f
6:50am 1.3ft 8s 5s 4 7 mph 1018.9mb 83f 83f
6:20am  -   -   -  4 7 mph 1018.6mb 83f 83f
5:50am 1.3ft 7s 4s 7
mph
1018.5mb 84f 83f
5:20am  -   -   -  7
mph
1018.7mb 83f 83f
4:50am 1.3ft 8s 4s 7
mph
1018.4mb 84f 83f
4:20am  -   -   -  9
mph
1018.1mb 84f 83f
3:50am 1.3ft 7s 4s 9
mph
1018.1mb 84f 83f
3:20am  -   -   -  9 11 mph 1018.1mb 84f 83f
2:50am 1.6ft 8s 4s 9 11 mph 1018.4mb 84f 83f
2:20am  -   -   -  9 11 mph 1018.6mb 84f 83f
1:50am 1.6ft 8s 4s 9 11 mph 1018.9mb 84f 83f
1:20am  -   -   -  9 11 mph 1019mb 84f 84f
12:50am 1.6ft 7s 4s 9 13 mph 1019.1mb 84f 84f
12:20am  -   -   -  11 13 mph 1019.2mb 84f 84f
Tue 07/26 11:50pm 1.3ft 8s 3s 13 16 mph 1019.1mb 84f 84f
11:20pm  -   -   -  13
mph
1018.9mb 84f 84f
10:50pm 1.6ft 7s 4s 11 13 mph 1018.9mb 84f 84f
10:20pm  -   -   -  11 13 mph 1018.8mb 84f 84f
9:50pm 1.6ft 8s 4s 13 16 mph 1018.5mb 84f 85f
9:20pm  -   -   -  13 16 mph 1018.3mb 84f 85f
8:50pm 1.3ft 7s 4s 13 16 mph 1018.1mb 85f 85f
8:20pm  -   -   -  13 16 mph 1018mb 85f 85f
7:50pm 1.3ft 8s 5s 11 13 mph 1017.7mb 85f 85f
7:20pm  -   -   -  11 13 mph 1017.4mb 85f 85f
6:50pm 1.3ft 8s 5s 11 13 mph 1017.5mb 85f 85f
6:20pm  -   -   -  11 13 mph 1017.5mb 86f 85f
5:50pm 1.3ft 8s 5s 11 13 mph 1017.6mb 86f 85f
5:20pm  -   -   -  9 11 mph 1017.9mb 86f 85f
4:50pm 1.3ft 8s 5s 11
mph
1018.1mb 86f 85f
4:20pm  -   -   -  11 13 mph 1018.2mb 86f 85f
3:50pm 1.3ft 8s 5s 11 13 mph 1018.4mb 87f 85f
3:20pm  -   -   -  9 11 mph 1018.8mb 87f 85f
2:50pm 1.3ft 8s 6s 9 11 mph 1019mb 87f 84f
2:20pm  -   -   -  7 9 mph 1019.4mb 87f 84f
1:50pm 1.3ft 8s 5s 7 9 mph 1019.6mb 87f 84f
1:20pm  -   -   -  7
mph
1019.8mb 87f 84f
12:50pm 1.3ft 8s 5s 7
mph
1019.8mb 86f 83f
12:20pm  -   -   -  4 7 mph 1019.9mb 86f 83f
11:50am 1.3ft 8s 5s 7 9 mph 1019.9mb 85f 83f
11:20am  -   -   -  9
mph
1019.8mb 85f 83f
10:50am 1.3ft 8s 5s 7
mph
1019.8mb 85f 83f
10:20am  -   -   -  4 7 mph 1019.8mb 85f 83f
9:50am 1.3ft 8s 5s 4
mph
1019.9mb 84f 83f
9:20am  -   -   -  4
mph
1019.7mb 84f 83f
8:50am 1.3ft 9s 4s 2 4 mph 1019.7mb 84f 83f
8:20am  -   -   -  2
mph
1019.5mb 84f 83f
7:50am 1.3ft 8s 4s  -  2 mph 1019.4mb 84f 82f
7:20am  -   -   -  2 4 mph 1019.2mb 84f 82f
6:50am 1.3ft 8s 4s 2 4 mph 1019mb 84f 82f
6:20am  -   -   -  4
mph
1018.8mb 84f 82f
5:50am 1.3ft 8s 4s 2
mph
1018.6mb 84f 82f
5:20am  -   -   -  2 4 mph 1018.4mb 84f 82f
4:50am 1.6ft 8s 4s 2 4 mph 1018.3mb 84f 82f
4:20am  -   -   -  4
mph
1018.2mb 84f 82f
3:50am 1.6ft 8s 4s 4 7 mph 1018.3mb 84f 82f
3:20am  -   -   -  11 16 mph 1018.3mb 84f 82f
2:50am 1.6ft 8s 4s 11 13 mph 1018.5mb 84f 83f
2:20am  -   -   -  11 13 mph 1018.7mb 84f 83f
1:50am 2ft 3s 4s 11 13 mph 1018.8mb 85f 84f
1:20am  -   -   -  11 13 mph 1018.8mb 85f 84f
12:50am 2ft 3s 4s 13 16 mph 1018.6mb 85f 84f
12:20am  -   -   -  13 16 mph 1018.5mb 84f 84f
Mon 07/25 11:50pm 2ft 8s 3s 16 18 mph 1018.5mb 85f 84f
11:20pm  -   -   -  16 18 mph 1018.5mb 85f 84f
10:50pm 2ft 8s 3s 16 18 mph 1018.3mb 85f 84f
10:20pm  -   -   -  13 16 mph 1018.2mb 85f 84f
9:50pm 2ft 7s 4s 16 18 mph 1018.1mb 85f 84f
9:20pm  -   -   -  16 18 mph 1018mb 85f 84f
8:50pm 2ft 8s 4s 16 18 mph 1017.8mb 85f 84f
8:20pm  -   -   -  13 16 mph 1017.8mb 85f 84f
7:50pm 2ft 8s 4s 13 16 mph 1017.7mb 85f 84f
7:20pm  -   -   -  13 18 mph 1017.7mb 85f 84f
6:50pm 1.6ft 8s 4s 16 18 mph 1017.3mb 85f 84f
6:20pm  -   -   -  13 18 mph 1017.3mb 85f 84f
5:50pm 1.6ft 8s 5s 16 18 mph 1017.3mb 85f 84f
5:20pm  -   -   -  13 16 mph 1017.5mb 86f 84f
4:50pm 1.6ft 8s 7s 13 16 mph 1017.6mb 86f 84f
4:20pm  -   -   -  11 13 mph 1017.8mb 87f 83f
3:50pm 1.6ft 8s 7s 9 13 mph 1018.3mb 87f 83f
3:20pm  -   -   -  9 13 mph 1018.4mb 87f 83f
2:50pm 1.6ft 8s 7s 9 11 mph 1018.5mb 87f 83f
2:20pm  -   -   -  7 9 mph 1018.8mb 87f 83f
1:50pm 1.6ft 9s 7s 7
mph
1018.9mb 87f 83f
1:20pm  -   -   -  7 9 mph 1019.1mb 87f 83f
12:50pm 1.3ft 8s 7s 4 7 mph 1019.6mb 86f 83f
12:20pm  -   -   -  7
mph
1019.8mb 86f 83f
11:50am 1.6ft 8s 6s 7
mph
1019.6mb 86f 82f
11:20am  -   -   -  7
mph
1019.6mb 85f 83f
10:50am 1.3ft 8s 6s 7 9 mph 1019.6mb 85f 82f
10:20am  -   -   -  4 9 mph 1019.6mb 85f 82f
9:50am 2ft 8s 7s 4 7 mph 1019.6mb 85f 82f
9:20am  -   -   -  4 7 mph 1019.3mb 85f 83f
8:50am 1.6ft 9s 6s 4 7 mph 1019.2mb 84f 82f
8:20am  -   -   -  7 9 mph 1019mb 84f 82f
7:50am 1.6ft 8s 5s 4 7 mph 1018.5mb 84f 82f
7:20am  -   -   -  4 7 mph 1018.2mb 84f 82f
6:50am 1.6ft 9s 6s 7
mph
1018.2mb 85f 82f
6:20am  -   -   -  7 9 mph 1017.9mb 85f 82f
5:20am  -   -   -  7 9 mph 1017.8mb 85f 82f
4:50am 1.6ft 8s 6s 4 7 mph 1017.7mb 85f 82f
4:20am  -   -   -  7 9 mph 1017.7mb 85f 82f
3:50am 1.6ft 8s 6s 7 9 mph 1017.7mb 85f 82f
3:20am  -   -   -  7 9 mph 1017.7mb 85f 82f
2:50am 1.6ft 9s 6s 7 9 mph 1017.9mb 85f 82f
2:20am  -   -   -  7
mph
1018.3mb 85f 82f
1:50am 1.6ft 8s 6s 4 7 mph 1018.5mb 85f 82f
1:20am  -   -   -  7 9 mph 1018.5mb 85f 82f
12:50am 1.6ft 8s 6s 9 11 mph 1018.4mb 85f 82f
12:20am  -   -   -  9 11 mph 1018.5mb 85f 83f
Sun 07/24 11:50pm 1.6ft 8s 6s 9 11 mph 1018.7mb 85f 83f
11:20pm  -   -   -  9 11 mph 1018.7mb 85f 83f
10:50pm 2ft 8s 6s 11 13 mph 1018.6mb 85f 83f
10:20pm  -   -   -  11 13 mph 1018.4mb 85f 83f
9:50pm 1.6ft 8s 6s 13 16 mph 1018.2mb 85f 83f
9:20pm  -   -   -  11 13 mph 1018mb 85f 83f
8:20pm  -   -   -  11 13 mph 1017.7mb 85f 83f
7:50pm 2ft 9s 5s 11 16 mph 1017.5mb 85f 83f